createdAt,value
2019-03-21T17:57:52.032Z,18.40
2019-03-21T18:00:31.664Z,20.75
2019-03-21T18:03:10.693Z,16.80
2019-03-21T18:05:46.350Z,20.12
2019-03-21T18:08:22.785Z,18.98
2019-03-21T18:10:58.304Z,22.87
2019-03-21T18:13:33.931Z,17.00
2019-03-21T18:16:19.497Z,18.20
2019-03-21T18:18:56.821Z,20.35
2019-03-21T18:21:33.473Z,18.37
2019-03-21T18:24:09.435Z,18.52
2019-03-21T18:26:45.529Z,17.23
2019-03-21T18:29:22.357Z,16.17
2019-03-21T18:31:58.166Z,20.35
2019-03-21T18:34:36.763Z,23.20
2019-03-21T18:37:12.388Z,18.98
2019-03-21T18:39:47.860Z,18.30
2019-03-21T18:42:23.415Z,18.40
2019-03-21T18:44:59.486Z,16.62
2019-03-21T18:47:36.420Z,16.85
2019-03-21T18:50:16.364Z,20.70
2019-03-21T18:52:50.856Z,16.70
2019-03-21T18:55:26.479Z,19.02
2019-03-21T18:58:01.960Z,16.30
2019-03-21T19:00:37.724Z,17.90
2019-03-21T19:03:13.129Z,16.73
2019-03-21T19:05:50.287Z,16.27
2019-03-21T19:08:25.904Z,20.48
2019-03-21T19:11:06.475Z,19.07
2019-03-21T19:13:41.882Z,15.93
2019-03-21T19:16:17.420Z,19.60
2019-03-21T19:18:53.106Z,19.07
2019-03-21T19:21:28.969Z,17.42
2019-03-21T19:24:04.451Z,21.55
2019-03-21T19:26:40.321Z,20.95
2019-03-21T19:29:15.729Z,24.30
2019-03-21T19:31:51.380Z,19.23
2019-03-21T19:34:26.939Z,21.05
2019-03-21T19:37:02.694Z,22.60
2019-03-21T19:39:38.468Z,18.57
2019-03-21T19:42:14.061Z,24.55
2019-03-21T19:44:57.571Z,21.40
2019-03-21T19:47:33.215Z,18.25
2019-03-21T19:50:09.754Z,24.43
2019-03-21T19:52:45.434Z,19.67
2019-03-21T19:55:30.194Z,16.45
2019-03-21T19:57:58.136Z,15.55
2019-03-21T20:00:33.736Z,21.25
2019-03-21T20:03:09.660Z,17.57
2019-03-21T20:05:45.051Z,16.30
2019-03-21T20:08:20.812Z,21.23
2019-03-21T20:10:56.275Z,20.15
2019-03-21T20:13:31.733Z,21.50
2019-03-21T20:16:07.302Z,21.25
2019-03-21T20:18:43.235Z,21.27
2019-03-21T20:21:18.626Z,20.45
2019-03-21T20:23:54.133Z,18.70
2019-03-21T20:26:29.806Z,19.35
2019-03-21T20:29:05.390Z,21.48
2019-03-21T20:31:41.015Z,25.05
2019-03-21T20:34:31.418Z,25.10
2019-03-21T20:37:18.967Z,28.17
2019-03-21T20:39:53.269Z,39.15
2019-03-21T20:42:30.293Z,53.23
2019-03-21T20:45:07.285Z,61.63
2019-03-21T20:47:42.649Z,72.90
2019-03-21T20:50:18.220Z,71.40
2019-03-21T20:52:53.735Z,72.50
2019-03-21T20:55:29.393Z,74.47
2019-03-21T20:58:04.971Z,85.67
2019-03-21T21:00:45.807Z,90.90
2019-03-21T21:03:21.396Z,86.00
2019-03-21T21:05:56.940Z,89.95
2019-03-21T21:08:32.663Z,91.75
2019-03-21T21:11:17.501Z,89.03
2019-03-21T21:13:53.156Z,96.57
2019-03-21T21:16:28.748Z,93.00
2019-03-21T21:19:04.296Z,92.08
2019-03-21T21:21:39.898Z,94.28
2019-03-21T21:24:15.498Z,99.55
2019-03-21T21:26:52.647Z,88.90
2019-03-21T21:29:35.630Z,98.95
2019-03-21T21:32:11.458Z,113.68
2019-03-21T21:34:47.059Z,115.17
2019-03-21T21:37:22.745Z,120.85
2019-03-21T21:39:58.336Z,123.13
2019-03-21T21:42:33.920Z,121.35
2019-03-21T21:45:10.226Z,131.35
2019-03-21T21:47:46.339Z,130.15
2019-03-21T21:50:24.631Z,125.87
2019-03-21T21:53:01.779Z,143.62
2019-03-21T21:55:37.709Z,138.47
2019-03-21T21:58:13.365Z,137.22
2019-03-21T22:00:48.918Z,134.25
2019-03-21T22:03:32.883Z,136.35
2019-03-21T22:06:08.959Z,132.75
2019-03-21T22:08:44.709Z,125.45
2019-03-21T22:11:20.403Z,133.10
2019-03-21T22:13:55.878Z,125.87
2019-03-21T22:16:31.535Z,139.60
2019-03-21T22:19:07.259Z,130.97
2019-03-21T22:21:42.954Z,140.00
2019-03-21T22:24:18.549Z,149.45
2019-03-21T22:26:54.239Z,147.87
2019-03-21T22:29:29.935Z,140.50
2019-03-21T22:32:05.476Z,152.05
2019-03-21T22:34:41.105Z,151.63
2019-03-21T22:37:16.875Z,159.32
2019-03-21T22:39:52.618Z,141.80
2019-03-21T22:42:28.169Z,165.28
2019-03-21T22:45:04.170Z,145.20
2019-03-21T22:47:39.729Z,154.82
2019-03-21T22:50:15.323Z,151.05
2019-03-21T22:52:52.026Z,152.62
2019-03-21T22:55:30.338Z,158.37
2019-03-21T22:58:05.998Z,143.50
2019-03-21T23:00:43.420Z,161.25
2019-03-21T23:03:19.098Z,154.57
2019-03-21T23:05:54.676Z,157.03
2019-03-21T23:08:30.395Z,156.80
2019-03-21T23:11:06.341Z,149.45
2019-03-21T23:13:41.917Z,166.77
2019-03-21T23:16:17.521Z,160.18
2019-03-21T23:18:53.314Z,172.40
2019-03-21T23:21:29.178Z,170.57
2019-03-21T23:24:15.611Z,157.50
2019-03-21T23:27:03.147Z,153.90
2019-03-21T23:29:37.271Z,170.05
2019-03-21T23:32:15.145Z,158.45
2019-03-21T23:34:50.689Z,171.07
2019-03-21T23:37:32.189Z,180.48
2019-03-21T23:40:11.092Z,171.18
2019-03-21T23:42:55.316Z,162.85
2019-03-21T23:45:30.844Z,166.05
2019-03-21T23:48:06.265Z,189.67
2019-03-21T23:50:41.808Z,172.45
2019-03-21T23:53:17.329Z,174.68
2019-03-21T23:55:52.643Z,178.23
2019-03-21T23:58:28.443Z,172.20
